sensor_id;sensor_type;location;lat;lon;timestamp;temperature;humidity
66586;SHT30;53444;45.822;16.092;2023-11-19T00:01:06;2.23;88.69
66586;SHT30;53444;45.822;16.092;2023-11-19T00:03:36;2.29;88.38
66586;SHT30;53444;45.822;16.092;2023-11-19T00:06:08;2.17;88.58
66586;SHT30;53444;45.822;16.092;2023-11-19T00:08:38;2.14;88.89
66586;SHT30;53444;45.822;16.092;2023-11-19T00:11:12;2.23;88.70
66586;SHT30;53444;45.822;16.092;2023-11-19T00:13:40;2.33;88.54
66586;SHT30;53444;45.822;16.092;2023-11-19T00:16:11;2.20;89.03
66586;SHT30;53444;45.822;16.092;2023-11-19T00:18:37;2.37;88.27
66586;SHT30;53444;45.822;16.092;2023-11-19T00:21:05;2.41;88.35
66586;SHT30;53444;45.822;16.092;2023-11-19T00:23:33;2.55;88.06
66586;SHT30;53444;45.822;16.092;2023-11-19T00:26:00;2.61;87.76
66586;SHT30;53444;45.822;16.092;2023-11-19T00:28:27;2.65;87.31
66586;SHT30;53444;45.822;16.092;2023-11-19T00:30:54;2.81;87.06
66586;SHT30;53444;45.822;16.092;2023-11-19T00:33:25;2.85;87.08
66586;SHT30;53444;45.822;16.092;2023-11-19T00:35:54;2.87;86.84
66586;SHT30;53444;45.822;16.092;2023-11-19T00:38:22;2.89;86.75
66586;SHT30;53444;45.822;16.092;2023-11-19T00:40:49;2.89;87.37
66586;SHT30;53444;45.822;16.092;2023-11-19T00:43:16;2.98;87.13
66586;SHT30;53444;45.822;16.092;2023-11-19T00:45:56;2.99;87.36
66586;SHT30;53444;45.822;16.092;2023-11-19T00:48:24;3.06;87.42
66586;SHT30;53444;45.822;16.092;2023-11-19T00:50:53;3.04;87.38
66586;SHT30;53444;45.822;16.092;2023-11-19T00:53:24;3.02;87.49
66586;SHT30;53444;45.822;16.092;2023-11-19T00:55:51;3.04;87.68
66586;SHT30;53444;45.822;16.092;2023-11-19T00:58:21;3.08;87.80
66586;SHT30;53444;45.822;16.092;2023-11-19T01:00:48;3.02;87.70
66586;SHT30;53444;45.822;16.092;2023-11-19T01:03:16;3.11;87.62
66586;SHT30;53444;45.822;16.092;2023-11-19T01:05:44;3.15;88.25
66586;SHT30;53444;45.822;16.092;2023-11-19T01:08:13;3.19;88.22
66586;SHT30;53444;45.822;16.092;2023-11-19T01:10:40;3.09;88.19
66586;SHT30;53444;45.822;16.092;2023-11-19T01:13:07;3.08;88.44
66586;SHT30;53444;45.822;16.092;2023-11-19T01:15:34;3.11;88.54
66586;SHT30;53444;45.822;16.092;2023-11-19T01:18:00;3.06;88.93
66586;SHT30;53444;45.822;16.092;2023-11-19T01:20:30;3.09;89.37
66586;SHT30;53444;45.822;16.092;2023-11-19T01:23:01;3.19;88.92
66586;SHT30;53444;45.822;16.092;2023-11-19T01:25:30;3.16;88.54
66586;SHT30;53444;45.822;16.092;2023-11-19T01:27:56;3.23;88.89
66586;SHT30;53444;45.822;16.092;2023-11-19T01:30:24;3.22;88.55
66586;SHT30;53444;45.822;16.092;2023-11-19T01:32:54;3.23;88.67
66586;SHT30;53444;45.822;16.092;2023-11-19T01:35:22;3.25;88.80
66586;SHT30;53444;45.822;16.092;2023-11-19T01:37:49;3.30;88.69
66586;SHT30;53444;45.822;16.092;2023-11-19T01:40:21;3.37;88.85
66586;SHT30;53444;45.822;16.092;2023-11-19T01:42:48;3.37;88.91
66586;SHT30;53444;45.822;16.092;2023-11-19T01:45:22;3.42;89.19
66586;SHT30;53444;45.822;16.092;2023-11-19T01:47:53;3.35;89.63
66586;SHT30;53444;45.822;16.092;2023-11-19T01:50:21;3.25;89.89
66586;SHT30;53444;45.822;16.092;2023-11-19T01:52:50;3.22;90.10
66586;SHT30;53444;45.822;16.092;2023-11-19T01:55:18;3.29;89.80
66586;SHT30;53444;45.822;16.092;2023-11-19T01:57:53;3.29;89.71
66586;SHT30;53444;45.822;16.092;2023-11-19T02:00:21;3.35;89.44
66586;SHT30;53444;45.822;16.092;2023-11-19T02:02:51;3.40;89.31
66586;SHT30;53444;45.822;16.092;2023-11-19T02:05:20;3.42;89.43
66586;SHT30;53444;45.822;16.092;2023-11-19T02:07:47;3.46;89.57
66586;SHT30;53444;45.822;16.092;2023-11-19T02:10:15;3.33;89.76
66586;SHT30;53444;45.822;16.092;2023-11-19T02:12:44;3.43;89.06
66586;SHT30;53444;45.822;16.092;2023-11-19T02:15:13;3.42;89.12
66586;SHT30;53444;45.822;16.092;2023-11-19T02:17:40;3.33;89.76
66586;SHT30;53444;45.822;16.092;2023-11-19T02:20:09;3.30;89.78
66586;SHT30;53444;45.822;16.092;2023-11-19T02:22:37;3.43;89.82
66586;SHT30;53444;45.822;16.092;2023-11-19T02:25:07;3.43;90.20
66586;SHT30;53444;45.822;16.092;2023-11-19T02:27:52;3.40;91.05
66586;SHT30;53444;45.822;16.092;2023-11-19T02:30:23;3.35;91.14
66586;SHT30;53444;45.822;16.092;2023-11-19T02:32:52;3.35;91.32
66586;SHT30;53444;45.822;16.092;2023-11-19T02:35:18;3.39;90.86
66586;SHT30;53444;45.822;16.092;2023-11-19T02:37:47;3.42;90.86
66586;SHT30;53444;45.822;16.092;2023-11-19T02:40:14;3.36;91.20
66586;SHT30;53444;45.822;16.092;2023-11-19T02:42:41;3.39;91.50
66586;SHT30;53444;45.822;16.092;2023-11-19T02:45:10;3.43;91.14
66586;SHT30;53444;45.822;16.092;2023-11-19T02:47:39;3.33;91.53
66586;SHT30;53444;45.822;16.092;2023-11-19T02:50:10;3.36;91.43
66586;SHT30;53444;45.822;16.092;2023-11-19T02:52:40;3.26;92.10
66586;SHT30;53444;45.822;16.092;2023-11-19T02:55:07;3.26;91.89
66586;SHT30;53444;45.822;16.092;2023-11-19T02:57:37;3.33;91.72
66586;SHT30;53444;45.822;16.092;2023-11-19T03:00:07;3.35;91.52
66586;SHT30;53444;45.822;16.092;2023-11-19T03:02:40;3.37;91.69
66586;SHT30;53444;45.822;16.092;2023-11-19T03:05:11;3.40;91.33
66586;SHT30;53444;45.822;16.092;2023-11-19T03:07:40;3.44;91.31
66586;SHT30;53444;45.822;16.092;2023-11-19T03:10:08;3.47;91.26
66586;SHT30;53444;45.822;16.092;2023-11-19T03:12:37;3.44;91.40
66586;SHT30;53444;45.822;16.092;2023-11-19T03:15:05;3.44;91.54
66586;SHT30;53444;45.822;16.092;2023-11-19T03:17:32;3.50;91.62
66586;SHT30;53444;45.822;16.092;2023-11-19T03:20:00;3.52;91.41
66586;SHT30;53444;45.822;16.092;2023-11-19T03:22:27;3.43;92.35
66586;SHT30;53444;45.822;16.092;2023-11-19T03:24:56;3.43;92.07
66586;SHT30;53444;45.822;16.092;2023-11-19T03:27:23;3.42;92.04
66586;SHT30;53444;45.822;16.092;2023-11-19T03:29:49;3.49;91.78
66586;SHT30;53444;45.822;16.092;2023-11-19T03:32:16;3.46;91.92
66586;SHT30;53444;45.822;16.092;2023-11-19T03:34:43;3.53;91.73
66586;SHT30;53444;45.822;16.092;2023-11-19T03:37:11;3.53;91.77
66586;SHT30;53444;45.822;16.092;2023-11-19T03:39:41;3.52;91.79
66586;SHT30;53444;45.822;16.092;2023-11-19T03:42:08;3.50;91.91
66586;SHT30;53444;45.822;16.092;2023-11-19T03:44:35;3.47;91.86
66586;SHT30;53444;45.822;16.092;2023-11-19T03:47:02;3.49;92.00
66586;SHT30;53444;45.822;16.092;2023-11-19T03:49:28;3.49;91.77
66586;SHT30;53444;45.822;16.092;2023-11-19T03:51:55;3.35;92.09
66586;SHT30;53444;45.822;16.092;2023-11-19T03:54:23;3.29;92.40
66586;SHT30;53444;45.822;16.092;2023-11-19T03:56:50;3.36;92.30
66586;SHT30;53444;45.822;16.092;2023-11-19T03:59:16;3.35;92.28
66586;SHT30;53444;45.822;16.092;2023-11-19T04:01:45;3.37;92.18
66586;SHT30;53444;45.822;16.092;2023-11-19T04:04:12;3.35;92.52
66586;SHT30;53444;45.822;16.092;2023-11-19T04:06:39;3.50;92.12
66586;SHT30;53444;45.822;16.092;2023-11-19T04:09:06;3.50;92.32
66586;SHT30;53444;45.822;16.092;2023-11-19T04:11:35;3.44;92.45
66586;SHT30;53444;45.822;16.092;2023-11-19T04:14:02;3.22;93.31
66586;SHT30;53444;45.822;16.092;2023-11-19T04:16:28;3.28;93.42
66586;SHT30;53444;45.822;16.092;2023-11-19T04:18:55;3.35;93.29
66586;SHT30;53444;45.822;16.092;2023-11-19T04:21:29;3.39;93.27
66586;SHT30;53444;45.822;16.092;2023-11-19T04:23:56;3.36;92.94
66586;SHT30;53444;45.822;16.092;2023-11-19T04:26:22;3.33;93.08
66586;SHT30;53444;45.822;16.092;2023-11-19T04:28:50;3.28;92.91
66586;SHT30;53444;45.822;16.092;2023-11-19T04:31:17;3.36;92.20
66586;SHT30;53444;45.822;16.092;2023-11-19T04:33:44;3.26;91.60
66586;SHT30;53444;45.822;16.092;2023-11-19T04:36:11;3.23;91.95
66586;SHT30;53444;45.822;16.092;2023-11-19T04:38:39;3.20;92.34
66586;SHT30;53444;45.822;16.092;2023-11-19T04:41:06;3.19;92.40
66586;SHT30;53444;45.822;16.092;2023-11-19T04:43:33;3.13;92.80
66586;SHT30;53444;45.822;16.092;2023-11-19T04:46:03;3.12;92.97
66586;SHT30;53444;45.822;16.092;2023-11-19T04:48:30;3.13;93.24
66586;SHT30;53444;45.822;16.092;2023-11-19T04:50:56;3.09;93.65
66586;SHT30;53444;45.822;16.092;2023-11-19T04:53:23;3.04;94.06
66586;SHT30;53444;45.822;16.092;2023-11-19T04:55:50;3.05;94.01
66586;SHT30;53444;45.822;16.092;2023-11-19T04:58:17;2.83;94.87
66586;SHT30;53444;45.822;16.092;2023-11-19T05:00:44;3.01;94.43
66586;SHT30;53444;45.822;16.092;2023-11-19T05:03:12;3.09;93.85
66586;SHT30;53444;45.822;16.092;2023-11-19T05:05:39;3.05;93.75
66586;SHT30;53444;45.822;16.092;2023-11-19T05:08:05;3.06;94.02
66586;SHT30;53444;45.822;16.092;2023-11-19T05:10:33;3.01;94.44
66586;SHT30;53444;45.822;16.092;2023-11-19T05:13:02;3.06;93.97
66586;SHT30;53444;45.822;16.092;2023-11-19T05:15:28;3.08;93.85
66586;SHT30;53444;45.822;16.092;2023-11-19T05:17:55;3.15;93.72
66586;SHT30;53444;45.822;16.092;2023-11-19T05:20:23;3.08;93.99
66586;SHT30;53444;45.822;16.092;2023-11-19T05:22:50;3.09;93.82
66586;SHT30;53444;45.822;16.092;2023-11-19T05:25:18;3.15;93.83
66586;SHT30;53444;45.822;16.092;2023-11-19T05:27:45;3.18;93.78
66586;SHT30;53444;45.822;16.092;2023-11-19T05:30:12;3.13;93.74
66586;SHT30;53444;45.822;16.092;2023-11-19T05:32:39;3.13;93.46
66586;SHT30;53444;45.822;16.092;2023-11-19T05:35:07;3.13;92.97
66586;SHT30;53444;45.822;16.092;2023-11-19T05:37:36;3.19;92.93
66586;SHT30;53444;45.822;16.092;2023-11-19T05:40:03;3.20;92.58
66586;SHT30;53444;45.822;16.092;2023-11-19T05:42:37;3.28;91.89
66586;SHT30;53444;45.822;16.092;2023-11-19T05:45:04;3.25;92.36
66586;SHT30;53444;45.822;16.092;2023-11-19T05:47:33;3.20;92.67
66586;SHT30;53444;45.822;16.092;2023-11-19T05:49:59;3.16;93.05
66586;SHT30;53444;45.822;16.092;2023-11-19T05:52:26;3.18;92.84
66586;SHT30;53444;45.822;16.092;2023-11-19T05:54:57;3.12;92.81
66586;SHT30;53444;45.822;16.092;2023-11-19T05:57:23;3.19;92.66
66586;SHT30;53444;45.822;16.092;2023-11-19T05:59:50;3.12;92.74
66586;SHT30;53444;45.822;16.092;2023-11-19T06:02:19;3.15;92.70
66586;SHT30;53444;45.822;16.092;2023-11-19T06:04:51;3.11;92.58
66586;SHT30;53444;45.822;16.092;2023-11-19T06:07:31;3.06;93.11
66586;SHT30;53444;45.822;16.092;2023-11-19T06:09:59;3.15;93.44
66586;SHT30;53444;45.822;16.092;2023-11-19T06:12:26;3.20;93.18
66586;SHT30;53444;45.822;16.092;2023-11-19T06:14:56;3.13;93.27
66586;SHT30;53444;45.822;16.092;2023-11-19T06:17:23;3.12;93.10
66586;SHT30;53444;45.822;16.092;2023-11-19T06:19:50;3.09;93.31
66586;SHT30;53444;45.822;16.092;2023-11-19T06:22:17;3.12;93.11
66586;SHT30;53444;45.822;16.092;2023-11-19T06:24:44;3.16;93.06
66586;SHT30;53444;45.822;16.092;2023-11-19T06:27:12;3.12;93.38
66586;SHT30;53444;45.822;16.092;2023-11-19T06:29:39;3.12;93.20
66586;SHT30;53444;45.822;16.092;2023-11-19T06:32:07;3.18;94.72
66586;SHT30;53444;45.822;16.092;2023-11-19T06:34:34;3.18;93.24
66586;SHT30;53444;45.822;16.092;2023-11-19T06:37:00;3.02;93.26
66586;SHT30;53444;45.822;16.092;2023-11-19T06:39:28;3.05;93.19
66586;SHT30;53444;45.822;16.092;2023-11-19T06:41:55;3.19;92.60
66586;SHT30;53444;45.822;16.092;2023-11-19T06:44:23;3.29;92.07
66586;SHT30;53444;45.822;16.092;2023-11-19T06:46:50;3.35;92.13
66586;SHT30;53444;45.822;16.092;2023-11-19T06:49:17;3.39;92.29
66586;SHT30;53444;45.822;16.092;2023-11-19T06:51:44;3.56;90.56
66586;SHT30;53444;45.822;16.092;2023-11-19T06:54:11;3.36;91.41
66586;SHT30;53444;45.822;16.092;2023-11-19T06:56:38;3.40;90.93
66586;SHT30;53444;45.822;16.092;2023-11-19T06:59:05;3.50;90.70
66586;SHT30;53444;45.822;16.092;2023-11-19T07:01:35;3.49;90.37
66586;SHT30;53444;45.822;16.092;2023-11-19T07:04:02;3.53;90.15
66586;SHT30;53444;45.822;16.092;2023-11-19T07:06:34;3.46;90.37
66586;SHT30;53444;45.822;16.092;2023-11-19T07:09:01;3.42;90.48
66586;SHT30;53444;45.822;16.092;2023-11-19T07:11:35;3.44;90.61
66586;SHT30;53444;45.822;16.092;2023-11-19T07:14:02;3.49;90.44
66586;SHT30;53444;45.822;16.092;2023-11-19T07:16:29;3.43;90.42
66586;SHT30;53444;45.822;16.092;2023-11-19T07:18:57;3.50;90.67
66586;SHT30;53444;45.822;16.092;2023-11-19T07:21:25;3.47;90.79
66586;SHT30;53444;45.822;16.092;2023-11-19T07:23:53;3.49;90.81
66586;SHT30;53444;45.822;16.092;2023-11-19T07:26:20;3.43;90.69
66586;SHT30;53444;45.822;16.092;2023-11-19T07:28:47;3.47;90.59
66586;SHT30;53444;45.822;16.092;2023-11-19T07:31:14;3.50;90.27
66586;SHT30;53444;45.822;16.092;2023-11-19T07:33:44;3.50;90.43
66586;SHT30;53444;45.822;16.092;2023-11-19T07:36:13;3.46;90.75
66586;SHT30;53444;45.822;16.092;2023-11-19T07:38:40;3.47;90.72
66586;SHT30;53444;45.822;16.092;2023-11-19T07:41:09;3.63;90.43
66586;SHT30;53444;45.822;16.092;2023-11-19T07:43:39;3.64;90.59
66586;SHT30;53444;45.822;16.092;2023-11-19T07:46:10;3.81;89.82
66586;SHT30;53444;45.822;16.092;2023-11-19T07:48:38;3.70;90.17
66586;SHT30;53444;45.822;16.092;2023-11-19T07:51:05;3.63;90.81
66586;SHT30;53444;45.822;16.092;2023-11-19T07:53:33;3.66;90.84
66586;SHT30;53444;45.822;16.092;2023-11-19T07:56:00;3.74;91.16
66586;SHT30;53444;45.822;16.092;2023-11-19T07:58:27;3.74;90.97
66586;SHT30;53444;45.822;16.092;2023-11-19T08:00:53;3.74;91.05
66586;SHT30;53444;45.822;16.092;2023-11-19T08:03:20;3.76;90.92
66586;SHT30;53444;45.822;16.092;2023-11-19T08:05:48;3.87;90.94
66586;SHT30;53444;45.822;16.092;2023-11-19T08:08:15;3.76;91.85
66586;SHT30;53444;45.822;16.092;2023-11-19T08:10:43;3.93;91.03
66586;SHT30;53444;45.822;16.092;2023-11-19T08:13:10;3.95;90.54
66586;SHT30;53444;45.822;16.092;2023-11-19T08:15:37;3.90;90.81
66586;SHT30;53444;45.822;16.092;2023-11-19T08:18:04;3.84;91.46
66586;SHT30;53444;45.822;16.092;2023-11-19T08:20:30;3.86;91.83
66586;SHT30;53444;45.822;16.092;2023-11-19T08:22:57;3.70;92.39
66586;SHT30;53444;45.822;16.092;2023-11-19T08:25:24;3.60;93.27
66586;SHT30;53444;45.822;16.092;2023-11-19T08:27:52;3.74;92.99
66586;SHT30;53444;45.822;16.092;2023-11-19T08:30:19;3.88;92.55
66586;SHT30;53444;45.822;16.092;2023-11-19T08:32:45;3.98;92.15
66586;SHT30;53444;45.822;16.092;2023-11-19T08:35:12;4.04;91.89
66586;SHT30;53444;45.822;16.092;2023-11-19T08:37:39;4.07;91.29
66586;SHT30;53444;45.822;16.092;2023-11-19T08:40:07;4.10;90.64
66586;SHT30;53444;45.822;16.092;2023-11-19T08:42:34;4.08;90.84
66586;SHT30;53444;45.822;16.092;2023-11-19T08:45:03;4.17;91.04
66586;SHT30;53444;45.822;16.092;2023-11-19T08:47:30;4.22;91.34
66586;SHT30;53444;45.822;16.092;2023-11-19T08:49:57;4.28;91.38
66586;SHT30;53444;45.822;16.092;2023-11-19T08:52:24;4.35;91.51
66586;SHT30;53444;45.822;16.092;2023-11-19T08:54:50;4.42;91.03
66586;SHT30;53444;45.822;16.092;2023-11-19T08:57:17;4.32;91.20
66586;SHT30;53444;45.822;16.092;2023-11-19T08:59:44;4.38;91.28
66586;SHT30;53444;45.822;16.092;2023-11-19T09:02:13;4.46;91.30
66586;SHT30;53444;45.822;16.092;2023-11-19T09:04:40;4.59;91.15
66586;SHT30;53444;45.822;16.092;2023-11-19T09:07:07;4.73;91.30
66586;SHT30;53444;45.822;16.092;2023-11-19T09:09:35;4.84;90.98
66586;SHT30;53444;45.822;16.092;2023-11-19T09:12:02;4.93;90.48
66586;SHT30;53444;45.822;16.092;2023-11-19T09:14:29;5.07;90.42
66586;SHT30;53444;45.822;16.092;2023-11-19T09:16:56;4.89;89.83
66586;SHT30;53444;45.822;16.092;2023-11-19T09:19:24;5.16;88.88
66586;SHT30;53444;45.822;16.092;2023-11-19T09:21:51;5.51;88.14
66586;SHT30;53444;45.822;16.092;2023-11-19T09:24:18;5.61;86.85
66586;SHT30;53444;45.822;16.092;2023-11-19T09:26:45;5.85;86.57
66586;SHT30;53444;45.822;16.092;2023-11-19T09:29:11;5.55;85.08
66586;SHT30;53444;45.822;16.092;2023-11-19T09:31:39;5.59;84.05
66586;SHT30;53444;45.822;16.092;2023-11-19T09:34:06;5.84;85.01
66586;SHT30;53444;45.822;16.092;2023-11-19T09:36:34;5.72;80.36
66586;SHT30;53444;45.822;16.092;2023-11-19T09:39:01;5.82;80.71
66586;SHT30;53444;45.822;16.092;2023-11-19T09:41:29;6.03;80.95
66586;SHT30;53444;45.822;16.092;2023-11-19T09:43:57;6.19;78.74
66586;SHT30;53444;45.822;16.092;2023-11-19T09:46:24;5.91;79.90
66586;SHT30;53444;45.822;16.092;2023-11-19T09:48:53;6.02;80.70
66586;SHT30;53444;45.822;16.092;2023-11-19T09:51:20;5.99;80.53
66586;SHT30;53444;45.822;16.092;2023-11-19T09:53:49;5.74;80.97
66586;SHT30;53444;45.822;16.092;2023-11-19T09:56:16;5.68;80.81
66586;SHT30;53444;45.822;16.092;2023-11-19T09:58:43;5.75;81.54
66586;SHT30;53444;45.822;16.092;2023-11-19T10:01:10;5.86;81.44
66586;SHT30;53444;45.822;16.092;2023-11-19T10:03:39;5.91;82.13
66586;SHT30;53444;45.822;16.092;2023-11-19T10:06:07;6.12;81.35
66586;SHT30;53444;45.822;16.092;2023-11-19T10:08:34;6.05;81.05
66586;SHT30;53444;45.822;16.092;2023-11-19T10:11:02;5.96;81.05
66586;SHT30;53444;45.822;16.092;2023-11-19T10:13:29;6.09;80.95
66586;SHT30;53444;45.822;16.092;2023-11-19T10:15:56;5.92;80.58
66586;SHT30;53444;45.822;16.092;2023-11-19T10:18:25;5.89;80.77
66586;SHT30;53444;45.822;16.092;2023-11-19T10:20:52;5.96;80.78
66586;SHT30;53444;45.822;16.092;2023-11-19T10:23:20;5.79;80.48
66586;SHT30;53444;45.822;16.092;2023-11-19T10:25:47;6.09;81.02
66586;SHT30;53444;45.822;16.092;2023-11-19T10:28:16;6.20;80.65
66586;SHT30;53444;45.822;16.092;2023-11-19T10:30:43;6.17;80.88
66586;SHT30;53444;45.822;16.092;2023-11-19T10:33:10;6.29;80.92
66586;SHT30;53444;45.822;16.092;2023-11-19T10:35:51;6.22;80.86
66586;SHT30;53444;45.822;16.092;2023-11-19T10:38:19;6.22;80.33
66586;SHT30;53444;45.822;16.092;2023-11-19T10:40:46;6.13;80.74
66586;SHT30;53444;45.822;16.092;2023-11-19T10:43:12;6.30;80.34
66586;SHT30;53444;45.822;16.092;2023-11-19T10:45:41;6.41;79.83
66586;SHT30;53444;45.822;16.092;2023-11-19T10:48:08;6.68;79.54
66586;SHT30;53444;45.822;16.092;2023-11-19T10:50:35;6.58;79.64
66586;SHT30;53444;45.822;16.092;2023-11-19T10:53:03;6.56;80.87
66586;SHT30;53444;45.822;16.092;2023-11-19T10:55:31;6.63;80.53
66586;SHT30;53444;45.822;16.092;2023-11-19T10:58:00;6.46;80.55
66586;SHT30;53444;45.822;16.092;2023-11-19T11:00:29;6.44;80.64
66586;SHT30;53444;45.822;16.092;2023-11-19T11:03:01;6.44;80.58
66586;SHT30;53444;45.822;16.092;2023-11-19T11:05:32;6.44;80.63
66586;SHT30;53444;45.822;16.092;2023-11-19T11:08:00;6.19;80.95
66586;SHT30;53444;45.822;16.092;2023-11-19T11:10:28;6.33;81.24
66586;SHT30;53444;45.822;16.092;2023-11-19T11:12:59;6.67;80.86
66586;SHT30;53444;45.822;16.092;2023-11-19T11:15:27;6.50;80.90
66586;SHT30;53444;45.822;16.092;2023-11-19T11:17:59;6.57;81.10
66586;SHT30;53444;45.822;16.092;2023-11-19T11:20:29;6.51;80.91
66586;SHT30;53444;45.822;16.092;2023-11-19T11:23:10;6.33;79.94
66586;SHT30;53444;45.822;16.092;2023-11-19T11:25:47;6.33;80.50
66586;SHT30;53444;45.822;16.092;2023-11-19T11:28:24;6.34;80.88
66586;SHT30;53444;45.822;16.092;2023-11-19T11:31:08;6.30;81.28
66586;SHT30;53444;45.822;16.092;2023-11-19T11:33:43;6.43;81.43
66586;SHT30;53444;45.822;16.092;2023-11-19T11:36:19;6.40;80.94
66586;SHT30;53444;45.822;16.092;2023-11-19T11:38:48;6.38;81.54
66586;SHT30;53444;45.822;16.092;2023-11-19T11:41:16;6.63;81.33
66586;SHT30;53444;45.822;16.092;2023-11-19T11:43:45;6.57;81.71
66586;SHT30;53444;45.822;16.092;2023-11-19T11:49:12;6.56;80.79
66586;SHT30;53444;45.822;16.092;2023-11-19T11:52:02;6.57;81.43
66586;SHT30;53444;45.822;16.092;2023-11-19T11:54:32;6.60;81.45
66586;SHT30;53444;45.822;16.092;2023-11-19T11:57:06;6.77;80.74
66586;SHT30;53444;45.822;16.092;2023-11-19T11:59:46;6.75;81.02
66586;SHT30;53444;45.822;16.092;2023-11-19T12:02:15;6.88;80.63
66586;SHT30;53444;45.822;16.092;2023-11-19T12:04:42;6.91;80.40
66586;SHT30;53444;45.822;16.092;2023-11-19T12:07:14;6.83;80.04
66586;SHT30;53444;45.822;16.092;2023-11-19T12:09:41;6.85;79.86
66586;SHT30;53444;45.822;16.092;2023-11-19T12:12:20;6.99;79.92
66586;SHT30;53444;45.822;16.092;2023-11-19T12:15:03;6.92;80.36
66586;SHT30;53444;45.822;16.092;2023-11-19T12:17:46;6.87;80.37
66586;SHT30;53444;45.822;16.092;2023-11-19T12:20:15;6.85;80.42
66586;SHT30;53444;45.822;16.092;2023-11-19T12:22:44;7.25;80.04
66586;SHT30;53444;45.822;16.092;2023-11-19T12:25:12;7.98;77.74
66586;SHT30;53444;45.822;16.092;2023-11-19T12:27:40;9.10;75.22
66586;SHT30;53444;45.822;16.092;2023-11-19T12:30:08;8.75;74.35
66586;SHT30;53444;45.822;16.092;2023-11-19T12:32:39;9.64;73.05
66586;SHT30;53444;45.822;16.092;2023-11-19T12:35:07;10.50;71.43
66586;SHT30;53444;45.822;16.092;2023-11-19T12:37:44;9.48;70.87
66586;SHT30;53444;45.822;16.092;2023-11-19T12:40:16;9.64;72.11
66586;SHT30;53444;45.822;16.092;2023-11-19T12:42:43;9.94;71.83
66586;SHT30;53444;45.822;16.092;2023-11-19T12:45:10;10.68;70.35
66586;SHT30;53444;45.822;16.092;2023-11-19T12:47:39;10.98;68.67
66586;SHT30;53444;45.822;16.092;2023-11-19T12:50:06;11.11;69.18
66586;SHT30;53444;45.822;16.092;2023-11-19T12:52:34;10.85;67.85
66586;SHT30;53444;45.822;16.092;2023-11-19T12:55:03;11.28;67.28
66586;SHT30;53444;45.822;16.092;2023-11-19T12:57:39;12.07;66.69
66586;SHT30;53444;45.822;16.092;2023-11-19T13:00:07;10.76;68.31
66586;SHT30;53444;45.822;16.092;2023-11-19T13:02:46;11.54;67.04
66586;SHT30;53444;45.822;16.092;2023-11-19T13:05:25;10.87;68.42
66586;SHT30;53444;45.822;16.092;2023-11-19T13:08:00;11.87;67.12
66586;SHT30;53444;45.822;16.092;2023-11-19T13:10:30;12.52;64.67
66586;SHT30;53444;45.822;16.092;2023-11-19T13:13:01;12.96;63.23
66586;SHT30;53444;45.822;16.092;2023-11-19T13:15:29;12.27;64.63
66586;SHT30;53444;45.822;16.092;2023-11-19T13:17:56;12.87;63.37
66586;SHT30;53444;45.822;16.092;2023-11-19T13:20:23;12.93;63.12
66586;SHT30;53444;45.822;16.092;2023-11-19T13:22:56;11.35;65.27
66586;SHT30;53444;45.822;16.092;2023-11-19T13:25:24;12.27;65.83
66586;SHT30;53444;45.822;16.092;2023-11-19T13:27:52;12.17;65.48
66586;SHT30;53444;45.822;16.092;2023-11-19T13:30:19;12.88;64.39
66586;SHT30;53444;45.822;16.092;2023-11-19T13:32:47;13.40;62.72
66586;SHT30;53444;45.822;16.092;2023-11-19T13:35:14;12.60;64.09
66586;SHT30;53444;45.822;16.092;2023-11-19T13:37:42;13.08;63.22
66586;SHT30;53444;45.822;16.092;2023-11-19T13:40:10;13.59;61.72
66586;SHT30;53444;45.822;16.092;2023-11-19T13:42:39;13.78;60.66
66586;SHT30;53444;45.822;16.092;2023-11-19T13:45:10;13.87;61.09
66586;SHT30;53444;45.822;16.092;2023-11-19T13:47:38;13.71;62.49
66586;SHT30;53444;45.822;16.092;2023-11-19T13:50:08;14.71;60.51
66586;SHT30;53444;45.822;16.092;2023-11-19T13:52:37;13.30;63.15
66586;SHT30;53444;45.822;16.092;2023-11-19T13:55:08;14.52;60.59
66586;SHT30;53444;45.822;16.092;2023-11-19T13:57:36;12.78;62.58
66586;SHT30;53444;45.822;16.092;2023-11-19T14:00:04;14.39;60.92
66586;SHT30;53444;45.822;16.092;2023-11-19T14:02:34;14.10;61.29
66586;SHT30;53444;45.822;16.092;2023-11-19T14:05:02;14.97;59.46
66586;SHT30;53444;45.822;16.092;2023-11-19T14:07:29;13.75;62.13
66586;SHT30;53444;45.822;16.092;2023-11-19T14:09:56;14.38;61.38
66586;SHT30;53444;45.822;16.092;2023-11-19T14:12:23;14.41;61.86
66586;SHT30;53444;45.822;16.092;2023-11-19T14:14:50;14.93;60.13
66586;SHT30;53444;45.822;16.092;2023-11-19T14:17:17;14.87;59.77
66586;SHT30;53444;45.822;16.092;2023-11-19T14:19:45;14.68;60.62
66586;SHT30;53444;45.822;16.092;2023-11-19T14:22:12;14.38;61.49
66586;SHT30;53444;45.822;16.092;2023-11-19T14:24:39;14.93;60.35
66586;SHT30;53444;45.822;16.092;2023-11-19T14:27:08;13.74;62.64
66586;SHT30;53444;45.822;16.092;2023-11-19T14:29:35;14.42;62.01
66586;SHT30;53444;45.822;16.092;2023-11-19T14:32:02;14.29;61.88
66586;SHT30;53444;45.822;16.092;2023-11-19T14:34:29;14.56;61.43
66586;SHT30;53444;45.822;16.092;2023-11-19T14:36:59;14.65;61.36
66586;SHT30;53444;45.822;16.092;2023-11-19T14:39:26;14.56;61.29
66586;SHT30;53444;45.822;16.092;2023-11-19T14:41:53;14.55;61.75
66586;SHT30;53444;45.822;16.092;2023-11-19T14:44:23;14.68;61.30
66586;SHT30;53444;45.822;16.092;2023-11-19T14:46:50;14.51;61.78
66586;SHT30;53444;45.822;16.092;2023-11-19T14:49:17;14.32;61.90
66586;SHT30;53444;45.822;16.092;2023-11-19T14:51:44;14.18;62.51
66586;SHT30;53444;45.822;16.092;2023-11-19T14:54:12;13.84;63.51
66586;SHT30;53444;45.822;16.092;2023-11-19T14:56:40;13.42;64.58
66586;SHT30;53444;45.822;16.092;2023-11-19T14:59:07;13.24;64.76
66586;SHT30;53444;45.822;16.092;2023-11-19T15:01:34;12.23;66.73
66586;SHT30;53444;45.822;16.092;2023-11-19T15:04:01;11.69;68.99
66586;SHT30;53444;45.822;16.092;2023-11-19T15:06:28;11.12;70.58
66586;SHT30;53444;45.822;16.092;2023-11-19T15:08:56;10.73;71.86
66586;SHT30;53444;45.822;16.092;2023-11-19T15:11:24;10.26;73.43
66586;SHT30;53444;45.822;16.092;2023-11-19T15:13:50;10.33;73.22
66586;SHT30;53444;45.822;16.092;2023-11-19T15:16:17;10.06;74.26
66586;SHT30;53444;45.822;16.092;2023-11-19T15:18:50;9.85;74.99
66586;SHT30;53444;45.822;16.092;2023-11-19T15:21:17;9.70;75.56
66586;SHT30;53444;45.822;16.092;2023-11-19T15:23:44;9.51;76.19
66586;SHT30;53444;45.822;16.092;2023-11-19T15:26:11;9.38;76.71
66586;SHT30;53444;45.822;16.092;2023-11-19T15:28:39;9.26;76.94
66586;SHT30;53444;45.822;16.092;2023-11-19T15:31:06;9.19;77.18
66586;SHT30;53444;45.822;16.092;2023-11-19T15:33:34;9.03;77.78
66586;SHT30;53444;45.822;16.092;2023-11-19T15:36:01;8.83;78.44
66586;SHT30;53444;45.822;16.092;2023-11-19T15:38:33;8.71;79.57